Time;durP1;ratioP1;P1;durP2;ratioP2;P2;SDS_P1;SDS_P2;PMS_P1;PMS_P2;Temp;Humidity;BMP_temperature;BMP_pressure;BME280_temperature;BME280_humidity;BME280_pressure;Samples;Min_cycle;Max_cycle;Signal;HPM_P1;HPM_P2
2023/08/11 00:02:19;;;;;;;5.43;3.03;;;20.70;70.80;;;;;;5060717;28;20493;-70
2023/08/11 00:04:44;;;;;;;3.50;2.95;;;20.60;71.00;;;;;;5058208;28;20491;-70
2023/08/11 00:07:10;;;;;;;4.68;3.60;;;20.60;71.10;;;;;;5059094;28;20114;-70
2023/08/11 00:09:36;;;;;;;3.55;2.92;;;20.60;71.10;;;;;;5057354;28;20497;-70
2023/08/11 00:12:02;;;;;;;5.57;3.38;;;20.60;71.10;;;;;;5058664;28;20028;-69
2023/08/11 00:14:27;;;;;;;4.07;3.17;;;20.50;71.40;;;;;;5056814;28;20017;-71
2023/08/11 00:16:53;;;;;;;3.17;2.80;;;20.50;71.50;;;;;;5058257;28;20111;-71
2023/08/11 00:19:19;;;;;;;5.32;2.92;;;20.50;71.80;;;;;;5066963;28;20051;-70
2023/08/11 00:21:44;;;;;;;3.13;2.75;;;20.40;71.70;;;;;;5055901;28;20487;-69
2023/08/11 00:24:11;;;;;;;4.95;3.40;;;20.50;71.70;;;;;;5065186;28;20029;-70
2023/08/11 00:26:36;;;;;;;3.95;2.90;;;20.40;71.80;;;;;;5060363;28;20372;-70
2023/08/11 00:29:02;;;;;;;5.00;3.00;;;20.40;71.90;;;;;;5058616;28;20051;-70
2023/08/11 00:31:28;;;;;;;4.10;2.90;;;20.30;72.10;;;;;;5064343;28;20060;-71
2023/08/11 00:33:54;;;;;;;4.15;3.28;;;20.30;72.20;;;;;;5062292;28;20056;-71
2023/08/11 00:36:19;;;;;;;5.28;3.60;;;20.30;72.30;;;;;;5065505;28;20541;-69
2023/08/11 00:38:45;;;;;;;5.93;3.05;;;20.30;72.60;;;;;;5063189;28;20028;-70
2023/08/11 00:41:11;;;;;;;4.47;3.40;;;20.30;72.40;;;;;;5060349;28;20025;-69
2023/08/11 00:43:36;;;;;;;3.53;3.20;;;20.30;72.60;;;;;;5060020;28;20404;-69
2023/08/11 00:46:10;;;;;;;5.20;3.60;;;20.30;72.70;;;;;;5062163;28;20465;-69
2023/08/11 00:48:41;;;;;;;5.40;4.00;;;20.20;72.80;;;;;;5062021;28;20025;-70
2023/08/11 00:51:09;;;;;;;5.18;4.20;;;20.20;73.00;;;;;;5063437;28;20075;-70
2023/08/11 00:53:36;;;;;;;6.45;4.03;;;20.20;73.30;;;;;;5063309;28;20052;-71
2023/08/11 00:56:03;;;;;;;3.90;3.38;;;20.10;73.30;;;;;;5063811;28;20021;-70
2023/08/11 00:58:30;;;;;;;4.60;3.50;;;20.10;73.30;;;;;;5063169;28;20025;-70
2023/08/11 01:00:57;;;;;;;5.68;4.38;;;20.10;73.40;;;;;;5062216;28;20108;-70
2023/08/11 01:03:22;;;;;;;5.22;4.38;;;20.00;73.70;;;;;;5058600;28;20020;-70
2023/08/11 01:06:04;;;;;;;4.68;3.92;;;20.00;74.10;;;;;;5059857;28;20090;-70
2023/08/11 01:08:34;;;;;;;4.95;4.30;;;20.00;74.10;;;;;;5058400;28;20029;-70
2023/08/11 01:11:17;;;;;;;6.43;3.80;;;20.00;74.20;;;;;;5061353;28;20032;-70
2023/08/11 01:13:53;;;;;;;5.20;3.47;;;20.00;74.20;;;;;;5062305;28;20028;-70
2023/08/11 01:16:20;;;;;;;4.95;3.85;;;20.00;74.20;;;;;;5060021;28;20025;-70
2023/08/11 01:18:47;;;;;;;6.72;3.95;;;19.90;74.10;;;;;;5060878;28;20500;-70
2023/08/11 01:21:15;;;;;;;4.22;3.67;;;19.90;74.40;;;;;;5062417;28;20032;-70
2023/08/11 01:23:41;;;;;;;7.85;3.70;;;19.90;74.40;;;;;;5061781;28;20021;-70
2023/08/11 01:26:07;;;;;;;4.32;3.88;;;19.90;74.40;;;;;;5064600;28;20017;-70
2023/08/11 01:28:34;;;;;;;5.07;4.38;;;19.90;74.40;;;;;;5059053;28;20498;-70
2023/08/11 01:31:00;;;;;;;4.60;3.90;;;19.90;74.50;;;;;;5062215;28;20505;-70
2023/08/11 01:33:26;;;;;;;6.78;3.60;;;19.80;74.80;;;;;;5062758;28;20017;-70
2023/08/11 01:35:51;;;;;;;7.20;4.50;;;19.80;75.00;;;;;;5061656;28;20036;-70
2023/08/11 01:38:17;;;;;;;6.60;4.70;;;19.80;75.10;;;;;;5060397;28;20028;-70
2023/08/11 01:40:42;;;;;;;5.57;3.80;;;19.70;75.20;;;;;;5059401;28;20020;-70
2023/08/11 01:43:12;;;;;;;5.05;3.85;;;19.70;75.20;;;;;;5061535;28;20137;-71
2023/08/11 01:45:39;;;;;;;4.93;3.70;;;19.60;75.30;;;;;;5062448;28;20036;-71
2023/08/11 01:48:05;;;;;;;4.28;3.17;;;19.70;75.40;;;;;;5060647;28;20019;-70
2023/08/11 01:50:33;;;;;;;5.03;3.55;;;19.60;75.20;;;;;;5065418;28;20521;-70
2023/08/11 01:52:58;;;;;;;5.40;3.42;;;19.70;75.50;;;;;;5063008;28;20438;-70
2023/08/11 01:55:25;;;;;;;5.28;3.40;;;19.70;75.50;;;;;;5059842;28;20021;-70
2023/08/11 01:57:51;;;;;;;4.22;3.47;;;19.70;75.50;;;;;;5060105;28;20547;-70
2023/08/11 02:00:16;;;;;;;5.28;3.70;;;19.70;75.50;;;;;;5060035;28;20124;-70
2023/08/11 02:02:45;;;;;;;6.15;4.60;;;19.60;75.50;;;;;;5061111;28;20086;-70
2023/08/11 02:05:12;;;;;;;5.47;4.15;;;19.70;75.50;;;;;;5062169;28;20078;-71
2023/08/11 02:07:38;;;;;;;5.53;3.72;;;19.60;75.40;;;;;;5061108;28;20024;-70
2023/08/11 02:10:04;;;;;;;7.20;4.00;;;19.70;75.40;;;;;;5061730;28;20048;-70
2023/08/11 02:12:30;;;;;;;7.15;4.32;;;19.70;75.40;;;;;;5059426;28;20021;-70
2023/08/11 02:14:56;;;;;;;5.25;3.65;;;19.60;75.50;;;;;;5059899;28;20025;-70
2023/08/11 02:17:22;;;;;;;5.97;4.05;;;19.60;75.60;;;;;;5057981;28;20025;-70
2023/08/11 02:19:47;;;;;;;4.32;3.63;;;19.60;75.60;;;;;;5059544;28;20044;-70
2023/08/11 02:22:13;;;;;;;6.45;3.45;;;19.60;75.60;;;;;;5056548;28;20157;-70
2023/08/11 02:24:39;;;;;;;5.10;3.70;;;19.60;75.50;;;;;;5058441;28;20020;-70
2023/08/11 02:27:04;;;;;;;6.05;4.10;;;19.50;75.50;;;;;;5063491;28;20033;-70
2023/08/11 02:29:30;;;;;;;5.55;4.10;;;19.50;75.90;;;;;;5063006;28;20076;-70
2023/08/11 02:31:56;;;;;;;5.32;4.05;;;19.50;76.20;;;;;;5060987;28;20025;-70
2023/08/11 02:34:21;;;;;;;6.75;4.25;;;19.40;76.20;;;;;;5059638;28;20049;-70
2023/08/11 02:36:47;;;;;;;4.90;4.28;;;19.40;76.40;;;;;;5061071;28;20028;-70
2023/08/11 02:39:13;;;;;;;5.45;4.10;;;19.40;76.50;;;;;;5059766;28;20028;-70
2023/08/11 02:41:38;;;;;;;7.50;4.75;;;19.40;76.50;;;;;;5061026;28;20025;-69
2023/08/11 02:44:04;;;;;;;5.75;4.25;;;19.40;76.70;;;;;;5059637;28;20025;-71
2023/08/11 02:46:31;;;;;;;6.13;4.60;;;19.30;76.60;;;;;;5062562;28;20029;-70
2023/08/11 02:48:56;;;;;;;6.63;4.38;;;19.30;76.70;;;;;;5060745;28;20017;-70
2023/08/11 02:51:22;;;;;;;5.85;4.35;;;19.30;76.80;;;;;;5063274;28;20035;-72
2023/08/11 02:53:48;;;;;;;6.53;4.78;;;19.30;76.90;;;;;;5061234;28;20029;-70
2023/08/11 02:56:15;;;;;;;8.18;4.95;;;19.30;77.00;;;;;;5059098;28;20033;-70
2023/08/11 02:58:43;;;;;;;6.82;4.95;;;19.30;77.20;;;;;;5060816;28;20365;-70
2023/08/11 03:01:09;;;;;;;8.38;5.43;;;19.30;77.30;;;;;;5060661;28;20035;-70
2023/08/11 03:03:35;;;;;;;5.60;4.50;;;19.30;77.40;;;;;;5060691;28;20452;-71
2023/08/11 03:06:00;;;;;;;6.38;4.68;;;19.30;77.20;;;;;;5061741;28;20032;-72
2023/08/11 03:08:27;;;;;;;6.55;4.70;;;19.30;77.20;;;;;;5060113;28;20013;-72
2023/08/11 03:10:53;;;;;;;6.43;4.55;;;19.30;77.90;;;;;;5059027;28;20036;-72
2023/08/11 03:13:19;;;;;;;6.38;4.85;;;19.30;77.20;;;;;;5061608;28;20028;-72
2023/08/11 03:15:45;;;;;;;6.72;4.72;;;19.30;77.20;;;;;;5057603;28;20025;-71
2023/08/11 03:18:11;;;;;;;7.53;4.93;;;19.30;77.40;;;;;;5061965;28;20017;-71
2023/08/11 03:20:36;;;;;;;6.63;4.28;;;19.30;77.30;;;;;;5059304;28;20029;-71
2023/08/11 03:23:04;;;;;;;5.45;4.10;;;19.30;77.30;;;;;;5059062;28;20024;-71
2023/08/11 03:25:30;;;;;;;6.43;4.60;;;19.20;77.30;;;;;;5061054;28;20060;-72
2023/08/11 03:27:56;;;;;;;6.05;4.80;;;19.20;77.40;;;;;;5057403;28;20498;-71
2023/08/11 03:30:23;;;;;;;7.13;4.97;;;19.20;77.60;;;;;;5061729;28;20029;-70
2023/08/11 03:32:48;;;;;;;7.00;4.70;;;19.20;77.60;;;;;;5057199;28;20078;-71
2023/08/11 03:35:14;;;;;;;6.28;5.10;;;19.20;77.60;;;;;;5061148;28;20025;-72
2023/08/11 03:37:40;;;;;;;7.32;5.50;;;19.10;77.70;;;;;;5057022;28;20107;-72
2023/08/11 03:40:09;;;;;;;6.55;4.45;;;19.10;77.80;;;;;;5056727;28;20024;-72
2023/08/11 03:42:35;;;;;;;6.93;4.60;;;19.10;77.80;;;;;;5057729;28;20024;-72
2023/08/11 03:45:00;;;;;;;6.78;5.43;;;19.10;77.80;;;;;;5060300;28;20020;-72
2023/08/11 03:47:26;;;;;;;6.78;5.28;;;19.10;78.00;;;;;;5059755;28;20487;-71
2023/08/11 03:49:51;;;;;;;6.88;4.90;;;19.10;78.20;;;;;;5060903;28;20096;-71
2023/08/11 03:52:17;;;;;;;6.45;4.90;;;19.10;78.20;;;;;;5057679;28;20029;-71
2023/08/11 03:54:43;;;;;;;6.03;4.90;;;19.10;78.10;;;;;;5060812;28;20025;-71
2023/08/11 03:57:08;;;;;;;7.50;5.07;;;19.10;78.10;;;;;;5060403;28;20496;-72
2023/08/11 03:59:34;;;;;;;6.82;5.25;;;19.10;78.10;;;;;;5060483;28;20372;-71
2023/08/11 04:02:00;;;;;;;8.48;5.70;;;19.10;78.20;;;;;;5059528;28;20086;-71
2023/08/11 04:04:26;;;;;;;6.57;5.10;;;19.00;78.40;;;;;;5062275;28;20391;-70
2023/08/11 04:06:52;;;;;;;7.78;6.00;;;19.00;78.50;;;;;;5060683;28;20052;-70
2023/08/11 04:09:18;;;;;;;6.70;4.90;;;19.00;78.60;;;;;;5060877;28;20052;-70
2023/08/11 04:11:44;;;;;;;6.80;5.10;;;19.00;78.50;;;;;;5061641;28;20098;-70
2023/08/11 04:14:09;;;;;;;7.60;5.00;;;19.00;78.50;;;;;;5058357;28;20060;-70
2023/08/11 04:16:35;;;;;;;7.20;5.07;;;18.90;78.50;;;;;;5061891;28;20025;-71
2023/08/11 04:19:01;;;;;;;7.35;5.30;;;19.00;78.60;;;;;;5057546;28;20641;-70
2023/08/11 04:21:27;;;;;;;5.70;4.90;;;19.00;78.60;;;;;;5059362;28;20029;-71
2023/08/11 04:23:53;;;;;;;6.97;5.40;;;19.00;78.70;;;;;;5059795;28;20021;-70
2023/08/11 04:26:19;;;;;;;7.00;5.63;;;19.00;78.60;;;;;;5058448;28;20455;-70
2023/08/11 04:28:45;;;;;;;6.57;5.30;;;19.00;78.80;;;;;;5054433;28;20032;-70
2023/08/11 04:31:13;;;;;;;8.50;4.93;;;19.00;79.30;;;;;;5059345;28;20467;-71
2023/08/11 04:33:38;;;;;;;8.00;5.60;;;19.00;78.80;;;;;;5057975;28;20125;-71
2023/08/11 04:36:04;;;;;;;6.88;4.88;;;19.00;78.80;;;;;;5059860;28;20645;-71
2023/08/11 04:38:32;;;;;;;6.93;5.50;;;19.00;78.80;;;;;;5055776;28;20016;-70
2023/08/11 04:40:58;;;;;;;8.52;6.35;;;19.00;78.80;;;;;;5057335;28;20033;-70
2023/08/11 04:43:24;;;;;;;7.20;5.65;;;19.00;78.90;;;;;;5059442;28;20021;-70
2023/08/11 04:45:49;;;;;;;8.10;5.55;;;19.00;78.90;;;;;;5056888;28;20091;-71
2023/08/11 04:48:15;;;;;;;6.30;5.03;;;19.00;78.90;;;;;;5058383;28;20652;-71
2023/08/11 04:50:41;;;;;;;8.63;5.47;;;19.00;78.70;;;;;;5059157;28;20032;-70
2023/08/11 04:53:08;;;;;;;7.10;4.95;;;19.10;78.80;;;;;;5062180;28;20016;-70
2023/08/11 04:55:34;;;;;;;6.18;5.03;;;19.10;78.90;;;;;;5058789;28;20066;-71
2023/08/11 04:58:00;;;;;;;5.88;5.25;;;19.10;78.80;;;;;;5056585;28;20036;-71
2023/08/11 05:00:26;;;;;;;6.80;5.05;;;19.10;78.70;;;;;;5062233;28;20033;-70
2023/08/11 05:02:52;;;;;;;6.72;5.28;;;19.10;78.60;;;;;;5059626;28;20040;-70
2023/08/11 05:05:19;;;;;;;7.03;5.35;;;19.10;78.60;;;;;;5059518;28;20025;-70
2023/08/11 05:07:45;;;;;;;6.88;4.63;;;19.10;78.60;;;;;;5059096;28;20373;-70
2023/08/11 05:10:10;;;;;;;6.35;5.13;;;19.10;78.50;;;;;;5061356;28;20016;-70
2023/08/11 05:12:36;;;;;;;7.15;5.28;;;19.10;78.60;;;;;;5059342;28;20029;-69
2023/08/11 05:15:03;;;;;;;5.72;4.63;;;19.10;78.60;;;;;;5061225;28;20099;-68
2023/08/11 05:17:29;;;;;;;6.88;5.47;;;19.10;78.60;;;;;;5057849;28;20129;-69
2023/08/11 05:19:56;;;;;;;6.55;5.38;;;19.20;78.50;;;;;;5059086;28;20020;-69
2023/08/11 05:22:22;;;;;;;6.65;5.20;;;19.20;78.80;;;;;;5062872;28;20024;-69
2023/08/11 05:24:47;;;;;;;6.82;5.43;;;19.20;78.70;;;;;;5065008;28;20104;-70
2023/08/11 05:27:14;;;;;;;7.13;5.65;;;19.20;78.80;;;;;;5060212;28;20144;-71
2023/08/11 05:29:40;;;;;;;7.05;5.70;;;19.20;78.90;;;;;;5064666;28;20453;-71
2023/08/11 05:32:06;;;;;;;9.80;6.00;;;19.20;78.90;;;;;;5060978;28;20112;-72
2023/08/11 05:34:31;;;;;;;7.03;4.82;;;19.80;78.60;;;;;;5058367;28;20040;-72
2023/08/11 05:36:57;;;;;;;6.38;4.70;;;20.80;76.40;;;;;;5062731;28;20099;-72
2023/08/11 05:39:23;;;;;;;5.30;4.60;;;21.60;74.00;;;;;;5060865;28;20021;-72
2023/08/11 05:41:49;;;;;;;6.72;5.30;;;22.30;71.50;;;;;;5060652;28;20021;-72
2023/08/11 05:44:14;;;;;;;6.32;5.18;;;23.00;69.30;;;;;;5061398;28;20467;-71
2023/08/11 05:46:40;;;;;;;7.03;4.82;;;23.50;67.50;;;;;;5058540;28;20025;-71
2023/08/11 05:49:06;;;;;;;5.97;4.68;;;24.10;65.70;;;;;;5061229;28;20045;-71
2023/08/11 05:51:31;;;;;;;5.93;4.80;;;24.50;64.30;;;;;;5057918;28;20471;-72
2023/08/11 05:53:57;;;;;;;5.90;4.78;;;24.90;63.20;;;;;;5058651;28;20082;-72
2023/08/11 05:56:22;;;;;;;5.40;4.40;;;25.30;61.90;;;;;;5064456;28;20467;-71
2023/08/11 05:58:48;;;;;;;5.07;3.78;;;25.80;61.10;;;;;;5058017;28;20099;-71
2023/08/11 06:01:14;;;;;;;5.95;3.80;;;26.30;60.00;;;;;;5065209;28;20021;-71
2023/08/11 06:03:39;;;;;;;7.60;4.40;;;26.70;58.80;;;;;;5058096;28;20075;-71
2023/08/11 06:06:05;;;;;;;6.30;4.63;;;26.90;58.00;;;;;;5064550;28;20118;-70
2023/08/11 06:08:31;;;;;;;5.85;3.75;;;27.30;57.10;;;;;;5060917;28;20021;-70
2023/08/11 06:10:56;;;;;;;5.20;3.88;;;27.70;56.20;;;;;;5062329;28;20032;-70
2023/08/11 06:13:25;;;;;;;8.10;4.60;;;27.80;55.20;;;;;;5060339;28;20031;-70
2023/08/11 06:15:50;;;;;;;7.20;4.18;;;28.00;54.70;;;;;;5062157;28;20408;-70
2023/08/11 06:18:17;;;;;;;5.75;3.83;;;28.10;54.10;;;;;;5062418;28;20055;-70
2023/08/11 06:20:43;;;;;;;4.50;3.83;;;28.50;53.70;;;;;;5056661;28;20021;-70
2023/08/11 06:23:09;;;;;;;5.93;3.88;;;28.60;53.40;;;;;;5058605;28;20028;-70
2023/08/11 06:25:35;;;;;;;6.72;4.70;;;28.90;52.50;;;;;;5059293;28;20040;-70
2023/08/11 06:28:01;;;;;;;5.45;3.80;;;28.60;51.80;;;;;;5059696;28;20832;-70
2023/08/11 06:30:28;;;;;;;6.00;4.65;;;29.10;51.90;;;;;;5060344;28;20463;-70
2023/08/11 06:32:54;;;;;;;6.13;4.60;;;29.10;50.90;;;;;;5058477;28;20548;-70
2023/08/11 06:35:20;;;;;;;9.48;4.13;;;29.20;50.90;;;;;;5059190;28;20033;-70
2023/08/11 06:37:45;;;;;;;6.15;4.40;;;29.60;50.70;;;;;;5061852;28;20059;-69
2023/08/11 06:40:13;;;;;;;6.00;4.38;;;29.70;50.00;;;;;;5059909;28;20032;-70
2023/08/11 06:42:39;;;;;;;6.00;4.00;;;29.90;49.90;;;;;;5066485;28;20429;-70
2023/08/11 06:45:06;;;;;;;5.13;3.63;;;30.00;49.60;;;;;;5062767;28;20064;-70
2023/08/11 06:47:34;;;;;;;6.03;4.20;;;30.30;49.50;;;;;;5062941;28;20024;-69
2023/08/11 06:50:00;;;;;;;7.53;4.80;;;30.20;48.90;;;;;;5061877;28;20096;-70
2023/08/11 06:52:26;;;;;;;5.72;4.13;;;29.90;49.30;;;;;;5063623;28;20021;-70
2023/08/11 06:54:52;;;;;;;6.32;4.20;;;29.40;49.70;;;;;;5061816;28;20028;-70
2023/08/11 06:57:18;;;;;;;6.75;4.70;;;29.10;50.80;;;;;;5061360;28;20476;-71
2023/08/11 06:59:44;;;;;;;6.28;4.60;;;28.90;50.70;;;;;;5060348;28;20029;-71
2023/08/11 07:02:09;;;;;;;8.15;5.22;;;28.70;51.60;;;;;;5059819;28;20086;-70
2023/08/11 07:04:35;;;;;;;7.65;5.05;;;28.90;51.70;;;;;;5061492;28;20013;-72
2023/08/11 07:07:01;;;;;;;7.05;4.20;;;28.80;51.80;;;;;;5065155;28;20494;-71
2023/08/11 07:09:26;;;;;;;5.43;3.85;;;29.30;51.70;;;;;;5064216;28;20024;-72
2023/08/11 07:11:52;;;;;;;5.60;3.78;;;29.70;50.90;;;;;;5057284;28;20532;-71
2023/08/11 07:14:18;;;;;;;6.65;4.03;;;29.90;50.70;;;;;;5060867;28;20025;-71
2023/08/11 07:16:43;;;;;;;7.47;4.40;;;30.00;50.00;;;;;;5057822;28;20052;-71
2023/08/11 07:19:09;;;;;;;5.82;3.80;;;30.00;50.00;;;;;;5060117;28;20138;-71
2023/08/11 07:21:34;;;;;;;6.57;4.22;;;30.20;50.00;;;;;;5059225;28;20556;-70
2023/08/11 07:24:00;;;;;;;7.78;3.85;;;30.60;49.50;;;;;;5058878;28;20044;-69
2023/08/11 07:26:25;;;;;;;7.07;3.97;;;30.50;49.60;;;;;;5061481;28;20067;-69
2023/08/11 07:28:51;;;;;;;9.15;4.55;;;30.60;49.30;;;;;;5060664;28;20516;-70
2023/08/11 07:31:16;;;;;;;9.60;4.90;;;30.50;49.30;;;;;;5057721;28;20404;-69
2023/08/11 07:33:43;;;;;;;6.00;3.90;;;30.60;49.30;;;;;;5055108;28;20040;-70
2023/08/11 07:36:09;;;;;;;5.88;4.53;;;30.90;49.30;;;;;;5060035;28;20384;-70
2023/08/11 07:38:35;;;;;;;7.22;4.45;;;30.60;48.50;;;;;;5057744;28;20035;-70
2023/08/11 07:41:01;;;;;;;7.78;4.75;;;30.30;48.90;;;;;;5063428;28;20029;-70
2023/08/11 07:43:26;;;;;;;5.95;4.03;;;30.00;49.50;;;;;;5068629;28;20024;-70
2023/08/11 07:45:52;;;;;;;6.70;3.90;;;30.00;50.10;;;;;;5062350;28;20028;-70
2023/08/11 07:48:18;;;;;;;5.55;3.67;;;30.10;50.50;;;;;;5056356;28;20559;-71
2023/08/11 07:50:44;;;;;;;7.80;3.97;;;30.40;50.40;;;;;;5058903;28;20692;-71
2023/08/11 07:53:10;;;;;;;6.32;4.28;;;30.10;50.30;;;;;;5058360;28;20036;-70
2023/08/11 07:55:36;;;;;;;6.75;3.60;;;29.90;50.60;;;;;;5058425;28;20388;-72
2023/08/11 07:58:02;;;;;;;7.10;4.32;;;29.60;51.50;;;;;;5056981;28;20041;-71
2023/08/11 08:00:28;;;;;;;6.82;4.00;;;29.10;52.10;;;;;;5060264;28;20031;-72
2023/08/11 08:02:55;;;;;;;7.28;3.55;;;28.50;53.00;;;;;;5059559;28;20021;-72
2023/08/11 08:05:21;;;;;;;6.53;3.47;;;28.30;53.90;;;;;;5057906;28;20052;-70
2023/08/11 08:07:47;;;;;;;7.82;4.53;;;28.10;54.60;;;;;;5060961;28;20028;-71
2023/08/11 08:10:14;;;;;;;4.95;3.63;;;27.60;54.90;;;;;;5060434;28;20031;-71
2023/08/11 08:12:43;;;;;;;5.88;4.30;;;27.20;55.80;;;;;;5061053;28;20021;-72
2023/08/11 08:15:10;;;;;;;6.50;3.80;;;26.90;56.30;;;;;;5060992;28;20028;-71
2023/08/11 08:17:37;;;;;;;5.72;4.13;;;26.80;56.90;;;;;;5055313;28;20029;-71
2023/08/11 08:20:05;;;;;;;6.68;4.20;;;26.50;57.00;;;;;;5059798;28;20123;-71
2023/08/11 08:22:32;;;;;;;5.90;3.80;;;26.50;57.50;;;;;;5052382;28;20033;-71
2023/08/11 08:24:58;;;;;;;6.03;4.00;;;26.40;57.60;;;;;;5061208;28;20028;-72
2023/08/11 08:27:24;;;;;;;7.78;4.65;;;26.40;57.80;;;;;;5054512;28;20040;-71
2023/08/11 08:29:53;;;;;;;6.20;4.03;;;26.40;58.10;;;;;;5055859;28;20025;-71
2023/08/11 08:32:22;;;;;;;5.75;3.70;;;26.40;58.20;;;;;;5052468;28;20498;-71
2023/08/11 08:34:48;;;;;;;6.25;3.80;;;26.50;58.00;;;;;;5052061;28;20027;-71
2023/08/11 08:37:18;;;;;;;5.68;3.83;;;26.30;57.70;;;;;;5057954;28;20036;-71
2023/08/11 08:39:44;;;;;;;5.68;3.80;;;26.40;58.40;;;;;;5054846;28;20112;-70
2023/08/11 08:42:11;;;;;;;6.47;4.00;;;26.40;57.90;;;;;;5061337;28;20024;-70
2023/08/11 08:44:38;;;;;;;7.13;4.80;;;26.20;57.50;;;;;;5062320;28;20020;-70
2023/08/11 08:47:05;;;;;;;6.35;4.25;;;26.10;57.90;;;;;;5059276;28;20025;-70
2023/08/11 08:49:31;;;;;;;6.38;4.25;;;26.00;58.10;;;;;;5059155;28;20052;-71
2023/08/11 08:51:57;;;;;;;6.80;3.90;;;26.20;58.60;;;;;;5062629;28;20056;-70
2023/08/11 08:54:23;;;;;;;5.90;4.18;;;26.20;58.40;;;;;;5062535;28;20020;-71
2023/08/11 08:56:52;;;;;;;5.03;3.35;;;26.30;58.30;;;;;;5063546;28;20090;-71
2023/08/11 08:59:18;;;;;;;6.38;4.25;;;26.40;58.40;;;;;;5058865;28;20070;-71
2023/08/11 09:01:44;;;;;;;5.18;3.65;;;26.50;58.40;;;;;;5062914;28;20063;-71
2023/08/11 09:04:10;;;;;;;7.07;3.78;;;26.60;58.70;;;;;;5065248;28;20208;-70
2023/08/11 09:06:38;;;;;;;5.57;3.30;;;26.70;58.50;;;;;;5061616;28;20017;-69
2023/08/11 09:09:05;;;;;;;6.50;3.78;;;26.80;58.40;;;;;;5061392;28;20100;-71
2023/08/11 09:11:30;;;;;;;5.63;3.80;;;26.90;58.30;;;;;;5066693;28;20040;-69
2023/08/11 09:14:06;;;;;;;7.85;3.75;;;27.00;58.10;;;;;;5067192;28;20021;-71
2023/08/11 09:16:37;;;;;;;5.00;3.50;;;27.00;58.00;;;;;;5059057;28;20028;-70
2023/08/11 09:19:07;;;;;;;3.92;3.20;;;27.10;58.00;;;;;;5057275;28;20617;-70
2023/08/11 09:21:33;;;;;;;5.38;2.83;;;27.10;57.40;;;;;;5058863;28;20163;-70
2023/08/11 09:23:59;;;;;;;5.72;3.10;;;27.20;57.40;;;;;;5055133;28;20104;-70
2023/08/11 09:26:25;;;;;;;4.13;2.80;;;27.40;57.30;;;;;;5056942;28;20384;-70
2023/08/11 09:28:51;;;;;;;5.60;3.50;;;27.50;57.10;;;;;;5060085;28;20020;-71
2023/08/11 09:31:24;;;;;;;4.55;3.33;;;27.60;56.10;;;;;;5059662;28;20039;-70
2023/08/11 09:33:51;;;;;;;4.57;3.40;;;27.60;55.90;;;;;;5063316;28;20025;-71
2023/08/11 09:36:18;;;;;;;3.45;2.72;;;27.60;55.20;;;;;;5058738;28;20170;-71
2023/08/11 09:38:47;;;;;;;4.55;2.60;;;27.70;55.80;;;;;;5066962;28;20039;-71
2023/08/11 09:41:16;;;;;;;5.40;3.20;;;27.80;55.90;;;;;;5064850;28;20172;-71
2023/08/11 09:43:49;;;;;;;6.20;3.30;;;27.80;56.10;;;;;;5058367;28;20021;-70
2023/08/11 09:46:15;;;;;;;3.85;3.03;;;27.70;56.20;;;;;;5061625;28;21643;-71
2023/08/11 09:48:41;;;;;;;6.60;3.50;;;27.90;56.40;;;;;;5078461;28;20028;-70
2023/08/11 09:51:10;;;;;;;5.28;3.15;;;28.10;55.60;;;;;;5066249;28;20025;-70
2023/08/11 09:53:40;;;;;;;4.10;2.63;;;28.00;55.40;;;;;;5064593;28;20040;-70
2023/08/11 09:56:07;;;;;;;7.30;2.72;;;28.10;55.60;;;;;;5063463;28;20120;-71
2023/08/11 09:58:38;;;;;;;7.75;3.40;;;28.20;55.10;;;;;;5062257;28;20073;-70
2023/08/11 10:01:07;;;;;;;4.07;2.50;;;28.10;53.20;;;;;;5057309;28;20025;-71
2023/08/11 10:03:41;;;;;;;4.20;2.30;;;28.10;53.40;;;;;;5064190;28;20048;-71
2023/08/11 10:06:10;;;;;;;5.93;2.78;;;28.20;54.00;;;;;;5063333;28;20127;-70
2023/08/11 10:08:36;;;;;;;5.22;2.97;;;28.30;53.90;;;;;;5067631;28;20100;-71
2023/08/11 10:11:03;;;;;;;4.75;2.70;;;28.40;53.40;;;;;;5067988;28;20020;-71
2023/08/11 10:13:29;;;;;;;4.13;2.78;;;28.50;53.20;;;;;;5062681;28;20039;-69
2023/08/11 10:15:55;;;;;;;4.90;2.97;;;28.50;52.70;;;;;;5068133;28;20043;-69
2023/08/11 10:18:21;;;;;;;3.08;2.40;;;28.70;52.90;;;;;;5065889;28;20078;-70
2023/08/11 10:20:50;;;;;;;3.95;2.42;;;28.70;52.80;;;;;;5060177;28;20040;-70
2023/08/11 10:23:19;;;;;;;2.80;2.50;;;28.70;53.00;;;;;;5068397;28;20036;-70
2023/08/11 10:25:46;;;;;;;3.08;2.17;;;28.90;53.10;;;;;;5063273;28;20420;-71
2023/08/11 10:28:13;;;;;;;3.47;2.40;;;29.00;52.80;;;;;;5063298;28;20021;-70
2023/08/11 10:30:40;;;;;;;3.33;2.45;;;29.00;52.50;;;;;;5058164;28;20036;-71
2023/08/11 10:33:07;;;;;;;4.13;2.50;;;29.10;52.70;;;;;;5065282;28;20032;-71
2023/08/11 10:35:53;;;;;;;2.80;2.40;;;29.30;52.60;;;;;;5064772;28;20024;-70
2023/08/11 10:38:25;;;;;;;5.68;2.60;;;29.40;52.30;;;;;;5061811;28;20040;-69
2023/08/11 10:41:15;;;;;;;6.07;2.80;;;29.40;52.20;;;;;;5057981;28;20472;-71
2023/08/11 10:43:47;;;;;;;4.13;2.55;;;29.30;51.50;;;;;;5060893;28;20060;-71
2023/08/11 10:46:22;;;;;;;5.78;2.78;;;29.20;52.00;;;;;;5058814;28;20021;-71
2023/08/11 10:48:48;;;;;;;4.13;2.53;;;29.30;51.70;;;;;;5058886;28;20016;-72
2023/08/11 10:51:36;;;;;;;4.75;3.13;;;29.40;51.90;;;;;;5059718;28;20525;-71
2023/08/11 10:54:09;;;;;;;4.05;2.80;;;29.40;51.40;;;;;;5061811;28;20035;-72
2023/08/11 10:56:37;;;;;;;5.47;2.75;;;29.50;51.50;;;;;;5061880;28;20027;-72
2023/08/11 10:59:17;;;;;;;4.95;2.70;;;29.40;51.20;;;;;;5058837;28;20038;-71
2023/08/11 11:01:47;;;;;;;5.95;2.65;;;29.40;51.50;;;;;;5060932;28;20093;-71
2023/08/11 11:04:14;;;;;;;5.80;3.07;;;29.40;51.30;;;;;;5058631;28;20025;-70
2023/08/11 11:06:41;;;;;;;3.70;2.75;;;29.50;51.70;;;;;;5059676;28;20102;-72
2023/08/11 11:09:10;;;;;;;3.33;2.40;;;29.50;51.80;;;;;;5061760;28;20550;-70
2023/08/11 11:11:39;;;;;;;4.38;2.30;;;29.70;52.10;;;;;;5060853;28;20021;-71
2023/08/11 11:14:06;;;;;;;4.70;2.30;;;29.70;51.30;;;;;;5064121;28;20599;-72
2023/08/11 11:16:32;;;;;;;5.07;2.45;;;29.70;51.20;;;;;;5058936;28;20480;-73
2023/08/11 11:19:00;;;;;;;4.30;2.50;;;29.80;51.20;;;;;;5059539;28;20020;-72
2023/08/11 11:21:26;;;;;;;3.17;2.25;;;30.00;51.40;;;;;;5056770;28;20116;-72
2023/08/11 11:23:52;;;;;;;2.85;2.40;;;30.10;51.00;;;;;;5064253;28;20116;-72
2023/08/11 11:26:25;;;;;;;4.50;2.65;;;30.10;50.80;;;;;;5062121;28;20051;-72
2023/08/11 11:28:52;;;;;;;3.13;2.22;;;30.00;50.50;;;;;;5061468;28;20461;-72
2023/08/11 11:31:19;;;;;;;3.60;2.42;;;29.90;50.60;;;;;;5060189;28;20517;-72
2023/08/11 11:33:46;;;;;;;2.47;1.90;;;29.70;50.50;;;;;;5061505;28;20043;-70
2023/08/11 11:36:12;;;;;;;3.15;1.98;;;29.70;50.90;;;;;;5058929;28;20060;-70
2023/08/11 11:38:39;;;;;;;4.30;2.33;;;29.90;51.10;;;;;;5062763;28;20491;-71
2023/08/11 11:41:10;;;;;;;3.15;2.35;;;30.00;51.30;;;;;;5068752;28;20935;-71
2023/08/11 11:43:36;;;;;;;3.05;1.95;;;30.10;50.60;;;;;;5063763;28;20059;-71
2023/08/11 11:46:03;;;;;;;2.88;1.90;;;30.10;50.70;;;;;;5061382;28;20415;-72
2023/08/11 11:48:28;;;;;;;2.72;2.30;;;30.20;51.10;;;;;;5061162;28;20032;-72
2023/08/11 11:50:54;;;;;;;7.22;2.33;;;30.30;50.80;;;;;;5059964;28;20491;-71
2023/08/11 11:53:23;;;;;;;3.47;2.05;;;30.40;50.80;;;;;;5055684;28;20557;-69
2023/08/11 11:55:51;;;;;;;2.83;1.60;;;30.60;50.60;;;;;;5062584;28;20063;-71
2023/08/11 11:58:17;;;;;;;3.25;2.00;;;30.70;50.10;;;;;;5061788;28;20537;-71
2023/08/11 12:00:46;;;;;;;2.33;1.90;;;30.80;49.90;;;;;;5064916;28;20047;-72
2023/08/11 12:03:12;;;;;;;3.67;1.80;;;30.80;49.40;;;;;;5057644;28;20024;-70
2023/08/11 12:05:38;;;;;;;5.35;2.22;;;30.90;49.50;;;;;;5062461;28;20035;-71
2023/08/11 12:08:35;;;;;;;5.03;1.92;;;31.00;49.60;;;;;;5063429;28;20052;-72
2023/08/11 12:11:01;;;;;;;2.70;2.08;;;31.10;49.60;;;;;;5061629;28;20036;-69
2023/08/11 12:13:29;;;;;;;2.80;2.03;;;31.10;49.20;;;;;;5060174;28;20093;-71
2023/08/11 12:15:55;;;;;;;2.08;1.88;;;31.10;49.10;;;;;;5065645;28;20059;-70
2023/08/11 12:18:21;;;;;;;3.63;1.90;;;31.20;49.20;;;;;;5058810;28;20064;-71
2023/08/11 12:20:46;;;;;;;3.10;1.90;;;31.30;49.10;;;;;;5057493;28;20083;-70
2023/08/11 12:23:12;;;;;;;2.70;2.00;;;31.50;49.00;;;;;;5052350;28;20028;-72
2023/08/11 12:25:38;;;;;;;3.38;1.90;;;31.50;49.00;;;;;;5058520;28;20031;-72
2023/08/11 12:28:04;;;;;;;4.07;2.10;;;31.60;48.70;;;;;;5063543;28;20024;-72
2023/08/11 12:30:30;;;;;;;2.58;1.92;;;31.70;48.20;;;;;;5051008;28;20024;-72
2023/08/11 12:32:56;;;;;;;1.95;1.73;;;31.60;48.20;;;;;;5066446;28;20031;-71
2023/08/11 12:35:22;;;;;;;2.20;1.80;;;31.70;48.60;;;;;;5066374;28;20505;-71
2023/08/11 12:37:47;;;;;;;2.15;1.73;;;31.90;48.70;;;;;;5062026;28;20021;-71
2023/08/11 12:40:14;;;;;;;2.95;2.00;;;32.00;48.50;;;;;;5066490;28;20021;-71
2023/08/11 12:42:40;;;;;;;2.40;2.00;;;32.00;47.80;;;;;;5065723;28;20260;-71
2023/08/11 12:45:07;;;;;;;3.10;2.00;;;31.80;47.50;;;;;;5063978;28;20123;-71
2023/08/11 12:47:32;;;;;;;2.90;1.88;;;31.90;47.90;;;;;;5071492;28;20089;-71